createdAt,value
2018-09-28T00:00:56.275Z,11.24
2018-09-28T00:03:24.939Z,11.22
2018-09-28T00:05:53.840Z,11.23
2018-09-28T00:08:22.522Z,11.23
2018-09-28T00:10:51.206Z,11.22
2018-09-28T00:13:19.903Z,11.18
2018-09-28T00:15:48.759Z,11.19
2018-09-28T00:18:17.432Z,11.18
2018-09-28T00:20:46.083Z,11.14
2018-09-28T00:23:14.745Z,11.08
2018-09-28T00:25:43.480Z,11.04
2018-09-28T00:28:12.149Z,11.03
2018-09-28T00:30:40.821Z,11.04
2018-09-28T00:33:09.487Z,11.07
2018-09-28T00:35:38.178Z,11.07
2018-09-28T00:38:06.895Z,11.09
2018-09-28T00:40:35.583Z,11.06
2018-09-28T00:43:04.284Z,11.02
2018-09-28T00:45:33.095Z,11.00
2018-09-28T00:48:01.740Z,11.00
2018-09-28T00:50:30.419Z,11.00
2018-09-28T00:52:59.063Z,10.97
2018-09-28T00:55:28.899Z,10.94
2018-09-28T00:57:57.578Z,10.88
2018-09-28T01:00:26.281Z,10.83
2018-09-28T01:02:54.956Z,10.80
2018-09-28T01:05:23.707Z,10.79
2018-09-28T01:07:52.528Z,10.76
2018-09-28T01:10:21.204Z,10.76
2018-09-28T01:12:49.943Z,10.73
2018-09-28T01:15:18.643Z,10.67
2018-09-28T01:17:47.360Z,10.65
2018-09-28T01:20:16.013Z,10.62
2018-09-28T01:22:44.675Z,10.59
2018-09-28T01:25:13.350Z,10.57
2018-09-28T01:27:43.220Z,10.57
2018-09-28T01:30:11.907Z,10.57
2018-09-28T01:32:40.584Z,10.57
2018-09-28T01:35:09.271Z,10.50
2018-09-28T01:37:37.956Z,10.50
2018-09-28T01:40:06.644Z,10.50
2018-09-28T01:42:35.308Z,10.50
2018-09-28T01:45:04.104Z,10.48
2018-09-28T01:47:32.754Z,10.42
2018-09-28T01:50:01.413Z,10.39
2018-09-28T01:52:30.105Z,10.37
2018-09-28T01:54:58.851Z,10.35
2018-09-28T01:57:27.772Z,10.34
2018-09-28T01:59:56.428Z,10.33
2018-09-28T02:02:25.475Z,10.30
2018-09-28T02:04:54.151Z,10.28
2018-09-28T02:07:22.829Z,10.24
2018-09-28T02:09:51.477Z,10.21
2018-09-28T02:12:20.218Z,10.19
2018-09-28T02:14:48.840Z,10.16
2018-09-28T02:17:17.506Z,10.16
2018-09-28T02:19:46.156Z,10.16
2018-09-28T02:22:14.907Z,10.14
2018-09-28T02:24:43.607Z,10.15
2018-09-28T02:27:12.276Z,10.11
2018-09-28T02:29:40.981Z,10.09
2018-09-28T02:32:09.648Z,10.06
2018-09-28T02:34:38.322Z,10.04
2018-09-28T02:37:07.464Z,10.02
2018-09-28T02:39:36.117Z,10.04
2018-09-28T02:42:04.961Z,10.01
2018-09-28T02:44:33.690Z,9.99
2018-09-28T02:47:02.335Z,9.96
2018-09-28T02:49:31.988Z,9.91
2018-09-28T02:52:00.655Z,9.90
2018-09-28T02:54:29.312Z,9.91
2018-09-28T02:56:58.259Z,9.86
2018-09-28T02:59:26.872Z,9.80
2018-09-28T03:01:55.589Z,9.82
2018-09-28T03:04:25.621Z,9.83
2018-09-28T03:06:54.271Z,9.84
2018-09-28T03:09:22.940Z,9.83
2018-09-28T03:11:51.608Z,9.81
2018-09-28T03:14:20.243Z,9.81
2018-09-28T03:16:49.937Z,9.81
2018-09-28T03:19:18.599Z,9.77
2018-09-28T03:21:47.255Z,9.70
2018-09-28T03:24:15.918Z,9.64
2018-09-28T03:26:44.568Z,9.62
2018-09-28T03:29:13.199Z,9.63
2018-09-28T03:31:41.840Z,9.65
2018-09-28T03:34:10.499Z,9.61
2018-09-28T03:36:39.159Z,9.58
2018-09-28T03:39:08.396Z,9.59
2018-09-28T03:41:37.227Z,9.59
2018-09-28T03:44:06.208Z,9.59
2018-09-28T03:46:35.119Z,9.59
2018-09-28T03:49:03.746Z,9.58
2018-09-28T03:51:32.433Z,9.56
2018-09-28T03:54:01.117Z,9.54
2018-09-28T03:56:29.743Z,9.51
2018-09-28T03:58:58.410Z,9.48
2018-09-28T04:01:27.090Z,9.46
2018-09-28T04:03:55.803Z,9.47
2018-09-28T04:06:24.460Z,9.47
2018-09-28T04:08:53.109Z,9.47
2018-09-28T04:11:21.783Z,9.45
2018-09-28T04:13:50.450Z,9.42
2018-09-28T04:16:20.261Z,9.41
2018-09-28T04:18:48.941Z,9.39
2018-09-28T04:21:17.644Z,9.40
2018-09-28T04:23:47.367Z,9.36
2018-09-28T04:26:16.040Z,9.35
2018-09-28T04:28:44.700Z,9.35
2018-09-28T04:31:13.384Z,9.37
2018-09-28T04:33:42.120Z,9.37
2018-09-28T04:36:10.805Z,9.37
2018-09-28T04:38:39.445Z,9.39
2018-09-28T04:41:08.151Z,9.38
2018-09-28T04:43:36.916Z,9.36
2018-09-28T04:46:05.699Z,9.34
2018-09-28T04:48:34.424Z,9.37
2018-09-28T04:51:03.132Z,9.42
2018-09-28T04:53:31.821Z,9.49
2018-09-28T04:56:00.492Z,9.55
2018-09-28T04:58:29.166Z,9.59
2018-09-28T05:00:57.831Z,9.63
2018-09-28T05:03:26.515Z,9.68
2018-09-28T05:05:55.168Z,9.74
2018-09-28T05:08:23.836Z,9.78
2018-09-28T05:10:52.488Z,9.80
2018-09-28T05:13:21.136Z,9.85
2018-09-28T05:15:49.986Z,9.88
2018-09-28T05:18:18.652Z,9.92
2018-09-28T05:20:47.324Z,9.94
2018-09-28T05:23:15.995Z,9.98
2018-09-28T05:25:44.665Z,10.01
2018-09-28T05:28:13.412Z,10.04
2018-09-28T05:30:44.971Z,10.07
2018-09-28T05:33:10.767Z,10.11
2018-09-28T05:35:39.431Z,10.16
2018-09-28T05:38:08.103Z,10.19
2018-09-28T05:40:36.767Z,10.22
2018-09-28T05:43:05.507Z,10.22
2018-09-28T05:45:34.188Z,10.22
2018-09-28T05:48:02.931Z,10.21
2018-09-28T05:50:31.600Z,10.21
2018-09-28T05:53:00.296Z,10.19
2018-09-28T05:55:29.006Z,10.21
2018-09-28T05:58:02.863Z,10.25
2018-09-28T06:00:36.849Z,10.27
2018-09-28T06:03:09.858Z,10.26
2018-09-28T06:05:42.784Z,10.27
2018-09-28T06:08:12.068Z,10.28
2018-09-28T06:10:40.751Z,10.27
2018-09-28T06:13:09.415Z,10.27
2018-09-28T06:15:38.318Z,10.23
2018-09-28T06:18:07.008Z,10.22
2018-09-28T06:20:35.711Z,10.19
2018-09-28T06:23:04.740Z,10.19
2018-09-28T06:25:33.516Z,10.20
2018-09-28T06:28:02.207Z,10.19
2018-09-28T06:30:30.928Z,10.20
2018-09-28T06:32:59.606Z,10.21
2018-09-28T06:35:28.300Z,10.23
2018-09-28T06:37:56.979Z,10.26
2018-09-28T06:40:25.727Z,10.28
2018-09-28T06:42:54.536Z,10.32
2018-09-28T06:45:23.225Z,10.36
2018-09-28T06:47:51.907Z,10.42
2018-09-28T06:50:20.595Z,10.48
2018-09-28T06:52:49.543Z,10.52
2018-09-28T06:55:18.241Z,10.55
2018-09-28T06:57:46.994Z,10.60
2018-09-28T07:00:15.879Z,10.64
2018-09-28T07:02:44.495Z,10.70
2018-09-28T07:05:13.223Z,10.73
2018-09-28T07:07:41.872Z,10.79
2018-09-28T07:10:10.665Z,10.82
2018-09-28T07:12:39.355Z,10.88
2018-09-28T07:15:08.086Z,10.93
2018-09-28T07:17:36.737Z,10.97
2018-09-28T07:20:05.614Z,11.02
2018-09-28T07:22:34.349Z,11.09
2018-09-28T07:25:03.086Z,11.16
2018-09-28T07:27:31.719Z,11.23
2018-09-28T07:30:00.428Z,11.31
2018-09-28T07:32:29.082Z,11.41
2018-09-28T07:34:57.791Z,11.51
2018-09-28T07:37:26.468Z,11.61
2018-09-28T07:39:55.167Z,11.73
2018-09-28T07:42:23.899Z,11.83
2018-09-28T07:44:52.539Z,11.92
2018-09-28T07:47:21.227Z,12.02
2018-09-28T07:49:50.023Z,12.11
2018-09-28T07:52:18.691Z,12.20
2018-09-28T07:54:47.438Z,12.28
2018-09-28T07:57:16.096Z,12.36
2018-09-28T07:59:44.768Z,12.45
2018-09-28T08:02:13.436Z,12.53
2018-09-28T08:04:42.101Z,12.62
2018-09-28T08:07:10.788Z,12.67
2018-09-28T08:09:39.441Z,12.73
2018-09-28T08:12:08.147Z,12.80
2018-09-28T08:14:36.896Z,12.85
2018-09-28T08:17:05.584Z,12.89
2018-09-28T08:19:34.269Z,12.94
2018-09-28T08:22:02.948Z,12.99
2018-09-28T08:24:31.633Z,13.04
2018-09-28T08:27:00.308Z,13.09
2018-09-28T08:29:28.972Z,13.13
2018-09-28T08:31:57.669Z,13.19
2018-09-28T08:34:26.330Z,13.22
2018-09-28T08:36:55.115Z,13.28
2018-09-28T08:39:23.756Z,13.30
2018-09-28T08:41:52.495Z,13.37
2018-09-28T08:44:21.169Z,13.41
2018-09-28T08:46:49.850Z,13.47
2018-09-28T08:49:18.618Z,13.48
2018-09-28T08:51:47.280Z,13.56
2018-09-28T08:54:17.068Z,13.61
2018-09-28T08:56:45.814Z,13.66
2018-09-28T08:59:14.514Z,13.72
2018-09-28T09:01:43.261Z,13.76
2018-09-28T09:04:11.980Z,13.78
2018-09-28T09:06:40.681Z,13.85
2018-09-28T09:09:11.460Z,13.88
2018-09-28T09:11:40.204Z,13.96
2018-09-28T09:14:09.081Z,13.99
2018-09-28T09:16:37.830Z,14.05
2018-09-28T09:19:06.506Z,14.08
2018-09-28T09:21:35.300Z,14.11
2018-09-28T09:24:04.173Z,14.08
2018-09-28T09:26:32.812Z,14.12
2018-09-28T09:29:01.556Z,14.09
2018-09-28T09:31:30.243Z,14.12
2018-09-28T09:33:58.990Z,14.13
2018-09-28T09:36:27.707Z,14.15
2018-09-28T09:38:56.488Z,14.14
2018-09-28T09:41:25.184Z,14.16
2018-09-28T09:43:53.894Z,14.18
2018-09-28T09:46:22.604Z,14.18
2018-09-28T09:48:51.354Z,14.19
2018-09-28T09:51:20.097Z,14.22
2018-09-28T09:53:48.878Z,14.24
2018-09-28T09:56:17.581Z,14.30
2018-09-28T09:58:46.300Z,14.39
2018-09-28T10:01:20.090Z,14.43
2018-09-28T10:03:50.206Z,14.47
2018-09-28T10:06:18.954Z,14.51
2018-09-28T10:08:47.907Z,14.56
2018-09-28T10:11:16.607Z,14.65
2018-09-28T10:13:45.302Z,14.73
2018-09-28T10:16:14.078Z,14.79
2018-09-28T10:18:42.769Z,14.87
2018-09-28T10:21:11.496Z,14.89
2018-09-28T10:23:40.260Z,15.03
2018-09-28T10:26:08.980Z,15.10
2018-09-28T10:28:37.770Z,15.19
2018-09-28T10:31:06.456Z,15.27
2018-09-28T10:33:35.250Z,15.35
2018-09-28T10:36:04.089Z,15.42
2018-09-28T10:38:32.844Z,15.48
2018-09-28T10:41:01.637Z,15.57
2018-09-28T10:43:30.294Z,15.66
2018-09-28T10:45:59.056Z,15.71
2018-09-28T10:48:27.761Z,15.72
2018-09-28T10:50:56.532Z,15.71
2018-09-28T10:53:25.197Z,15.67
2018-09-28T10:55:53.920Z,15.67
2018-09-28T10:58:22.876Z,15.77
2018-09-28T11:00:51.572Z,15.90
2018-09-28T11:03:20.351Z,16.08
2018-09-28T11:05:49.065Z,16.28
2018-09-28T11:08:17.848Z,16.43
2018-09-28T11:10:46.555Z,16.54
2018-09-28T11:13:15.366Z,16.68
2018-09-28T11:15:44.089Z,16.79
2018-09-28T11:18:12.813Z,16.79
2018-09-28T11:20:41.545Z,16.82
2018-09-28T11:23:10.252Z,16.82
2018-09-28T11:25:38.999Z,16.70
2018-09-28T11:28:07.726Z,16.69
2018-09-28T11:30:36.464Z,16.69
2018-09-28T11:33:05.166Z,16.71
2018-09-28T11:35:33.893Z,16.78
2018-09-28T11:38:02.751Z,16.78
2018-09-28T11:40:31.510Z,16.81
2018-09-28T11:43:00.219Z,16.89
2018-09-28T11:45:29.038Z,16.99
2018-09-28T11:47:57.714Z,17.11
2018-09-28T11:50:26.404Z,17.15
2018-09-28T11:52:55.248Z,17.01
2018-09-28T11:55:23.975Z,16.79
2018-09-28T11:57:52.689Z,16.62
2018-09-28T12:00:21.408Z,16.50
2018-09-28T12:02:50.229Z,16.38
2018-09-28T12:05:18.972Z,16.28
2018-09-28T12:07:47.688Z,16.50
2018-09-28T12:10:16.404Z,16.93
2018-09-28T12:12:45.184Z,17.31
2018-09-28T12:15:13.865Z,17.52
2018-09-28T12:17:42.577Z,17.62
2018-09-28T12:20:11.572Z,17.69
2018-09-28T12:22:40.388Z,17.79
2018-09-28T12:25:09.079Z,17.80
2018-09-28T12:27:37.821Z,17.83
2018-09-28T12:30:06.761Z,17.90
2018-09-28T12:32:35.456Z,17.93
2018-09-28T12:35:04.183Z,17.81
2018-09-28T12:37:32.908Z,17.92
2018-09-28T12:40:01.692Z,17.72
2018-09-28T12:42:30.433Z,17.44
2018-09-28T12:44:59.239Z,17.30
2018-09-28T12:47:27.875Z,17.24
2018-09-28T12:49:56.643Z,17.59
2018-09-28T12:52:25.806Z,17.77
2018-09-28T12:54:54.493Z,18.08
2018-09-28T12:57:23.175Z,18.40
2018-09-28T12:59:52.148Z,18.61
2018-09-28T13:02:20.873Z,18.93
2018-09-28T13:04:49.631Z,19.06
2018-09-28T13:07:18.319Z,18.86
2018-09-28T13:09:47.045Z,18.96
2018-09-28T13:12:15.809Z,18.84
2018-09-28T13:14:44.577Z,18.89
2018-09-28T13:17:13.212Z,19.13
2018-09-28T13:19:41.944Z,19.50
2018-09-28T13:22:10.601Z,19.84
2018-09-28T13:24:39.302Z,20.02
2018-09-28T13:27:08.032Z,20.35
2018-09-28T13:29:36.725Z,20.58
2018-09-28T13:32:05.429Z,20.27
2018-09-28T13:34:34.127Z,20.00
2018-09-28T13:37:03.718Z,19.88
2018-09-28T13:39:33.464Z,20.08
2018-09-28T13:42:02.217Z,20.18
2018-09-28T13:44:31.002Z,20.33
2018-09-28T13:46:59.769Z,20.45
2018-09-28T13:49:28.460Z,20.66
2018-09-28T13:51:57.189Z,20.87
2018-09-28T13:54:25.949Z,20.83
2018-09-28T13:56:54.628Z,20.81
2018-09-28T13:59:23.322Z,20.92
2018-09-28T14:01:52.027Z,20.91
2018-09-28T14:04:20.812Z,20.93
2018-09-28T14:06:49.650Z,21.03
2018-09-28T14:09:18.332Z,21.20
2018-09-28T14:11:47.067Z,21.24
2018-09-28T14:14:15.819Z,20.98
2018-09-28T14:16:44.566Z,20.79
2018-09-28T14:19:13.302Z,20.81
2018-09-28T14:21:42.242Z,20.83
2018-09-28T14:24:10.987Z,20.96
2018-09-28T14:26:39.914Z,20.98
2018-09-28T14:29:08.603Z,20.91
2018-09-28T14:31:37.335Z,20.94
2018-09-28T14:34:06.096Z,21.10
2018-09-28T14:36:34.870Z,21.41
2018-09-28T14:39:04.919Z,21.52
2018-09-28T14:41:33.807Z,21.45
2018-09-28T14:44:02.521Z,21.34
2018-09-28T14:46:31.244Z,21.14
2018-09-28T14:49:00.152Z,21.08
2018-09-28T14:51:28.718Z,21.08
2018-09-28T14:53:57.481Z,21.16
2018-09-28T14:56:26.243Z,21.23
2018-09-28T14:58:54.950Z,21.31
2018-09-28T15:01:23.849Z,21.42
2018-09-28T15:03:52.352Z,21.47
2018-09-28T15:06:21.115Z,21.58
2018-09-28T15:08:49.953Z,21.66
2018-09-28T15:11:18.732Z,21.68
2018-09-28T15:13:47.433Z,21.62
2018-09-28T15:16:16.157Z,21.57
2018-09-28T15:18:44.914Z,21.62
2018-09-28T15:21:13.579Z,21.63
2018-09-28T15:23:42.299Z,21.72
2018-09-28T15:26:10.992Z,21.76
2018-09-28T15:28:39.765Z,21.80
2018-09-28T15:31:08.467Z,21.78
2018-09-28T15:33:37.156Z,21.82
2018-09-28T15:36:06.020Z,21.85
2018-09-28T15:38:34.940Z,21.95
2018-09-28T15:41:03.768Z,22.03
2018-09-28T15:43:32.556Z,22.00
2018-09-28T15:46:01.416Z,21.81
2018-09-28T15:48:30.181Z,21.79
2018-09-28T15:50:59.089Z,21.87
2018-09-28T15:53:27.847Z,21.80
2018-09-28T15:55:56.769Z,21.74
2018-09-28T15:58:25.540Z,21.72
2018-09-28T16:00:54.229Z,21.71
2018-09-28T16:03:22.922Z,21.68
2018-09-28T16:05:51.652Z,21.70
2018-09-28T16:08:20.328Z,21.71
2018-09-28T16:10:49.123Z,21.72
2018-09-28T16:13:17.828Z,21.59
2018-09-28T16:15:46.640Z,21.52
2018-09-28T16:18:15.394Z,21.52
2018-09-28T16:20:44.176Z,21.49
2018-09-28T16:23:12.948Z,21.49
2018-09-28T16:25:41.672Z,21.54
2018-09-28T16:28:10.456Z,21.68
2018-09-28T16:30:39.212Z,21.69
2018-09-28T16:33:08.000Z,21.69
2018-09-28T16:35:36.707Z,21.71
2018-09-28T16:38:05.656Z,21.68
2018-09-28T16:40:34.465Z,21.58
2018-09-28T16:43:03.281Z,21.45
2018-09-28T16:45:32.089Z,21.45
2018-09-28T16:48:00.884Z,21.42
2018-09-28T16:50:29.656Z,21.42
2018-09-28T16:52:58.390Z,21.42
2018-09-28T16:55:27.134Z,21.38
2018-09-28T16:57:56.073Z,21.34
2018-09-28T17:00:24.908Z,21.27
2018-09-28T17:02:53.652Z,21.15
2018-09-28T17:05:22.585Z,21.06
2018-09-28T17:07:51.453Z,20.94
2018-09-28T17:10:20.276Z,20.75
2018-09-28T17:12:49.237Z,20.51
2018-09-28T17:15:18.123Z,20.24
2018-09-28T17:17:46.907Z,19.94
2018-09-28T17:20:15.703Z,19.64
2018-09-28T17:22:44.496Z,19.37
2018-09-28T17:25:13.272Z,19.10
2018-09-28T17:27:41.966Z,18.85
2018-09-28T17:30:10.815Z,18.63
2018-09-28T17:32:39.717Z,18.45
2018-09-28T17:35:08.648Z,18.27
2018-09-28T17:37:37.343Z,18.07
2018-09-28T17:40:06.365Z,17.90
2018-09-28T17:42:35.220Z,17.73
2018-09-28T17:45:04.071Z,17.59
2018-09-28T17:47:32.812Z,17.43
2018-09-28T17:50:01.603Z,17.30
2018-09-28T17:52:30.384Z,17.16
2018-09-28T17:54:59.120Z,17.00
2018-09-28T17:57:27.850Z,16.87
2018-09-28T17:59:56.597Z,16.73
2018-09-28T18:02:25.292Z,16.56
2018-09-28T18:04:54.032Z,16.40
2018-09-28T18:07:22.759Z,16.27
2018-09-28T18:09:51.512Z,16.09
2018-09-28T18:12:20.227Z,15.95
2018-09-28T18:14:49.017Z,15.78
2018-09-28T18:17:17.730Z,15.64
2018-09-28T18:19:46.393Z,15.51
2018-09-28T18:22:15.101Z,15.38
2018-09-28T18:24:43.760Z,15.28
2018-09-28T18:27:12.494Z,15.15
2018-09-28T18:29:41.153Z,15.04
2018-09-28T18:32:09.848Z,14.90
2018-09-28T18:34:38.508Z,14.80
2018-09-28T18:37:07.268Z,14.73
2018-09-28T18:39:35.981Z,14.66
2018-09-28T18:42:04.730Z,14.56
2018-09-28T18:44:33.386Z,14.48
2018-09-28T18:47:02.853Z,14.40
2018-09-28T18:49:31.672Z,14.36
2018-09-28T18:52:00.356Z,14.32
2018-09-28T18:54:29.028Z,14.26
2018-09-28T18:56:57.716Z,14.18
2018-09-28T18:59:26.545Z,14.13
2018-09-28T19:01:55.236Z,14.07
2018-09-28T19:04:23.969Z,14.02
2018-09-28T19:06:52.714Z,13.99
2018-09-28T19:09:21.605Z,13.95
2018-09-28T19:11:50.517Z,13.90
2018-09-28T19:14:19.228Z,13.82
2018-09-28T19:16:48.021Z,13.75
2018-09-28T19:19:16.798Z,13.65
2018-09-28T19:21:45.492Z,13.58
2018-09-28T19:24:14.176Z,13.51
2018-09-28T19:26:42.865Z,13.48
2018-09-28T19:29:11.597Z,13.43
2018-09-28T19:31:40.399Z,13.40
2018-09-28T19:34:09.180Z,13.35
2018-09-28T19:36:37.889Z,13.32
2018-09-28T19:39:08.613Z,13.27
2018-09-28T19:41:37.515Z,13.20
2018-09-28T19:44:06.432Z,13.17
2018-09-28T19:46:35.244Z,13.13
2018-09-28T19:49:03.974Z,13.10
2018-09-28T19:51:32.875Z,13.10
2018-09-28T19:54:01.580Z,13.07
2018-09-28T19:56:30.288Z,13.03
2018-09-28T19:58:59.501Z,13.02
2018-09-28T20:01:28.227Z,13.01
2018-09-28T20:03:56.932Z,12.94
2018-09-28T20:06:25.625Z,12.83
2018-09-28T20:08:54.387Z,12.76
2018-09-28T20:11:23.196Z,12.67
2018-09-28T20:13:51.949Z,12.65
2018-09-28T20:16:20.676Z,12.61
2018-09-28T20:18:49.471Z,12.65
2018-09-28T20:21:18.164Z,12.59
2018-09-28T20:23:46.877Z,12.58
2018-09-28T20:26:15.668Z,12.51
2018-09-28T20:28:44.372Z,12.46
2018-09-28T20:31:13.206Z,12.45
2018-09-28T20:33:41.976Z,12.39
2018-09-28T20:36:10.717Z,12.37
2018-09-28T20:38:39.568Z,12.40
2018-09-28T20:41:08.304Z,12.38
2018-09-28T20:43:37.024Z,12.38
2018-09-28T20:46:05.764Z,12.36
2018-09-28T20:48:34.536Z,12.30
2018-09-28T20:51:03.267Z,12.32
2018-09-28T20:53:32.053Z,12.32
2018-09-28T20:56:00.790Z,12.29
2018-09-28T20:58:29.501Z,12.26
2018-09-28T21:00:58.246Z,12.23
2018-09-28T21:03:26.965Z,12.23
2018-09-28T21:05:55.651Z,12.20
2018-09-28T21:08:24.341Z,12.19
2018-09-28T21:10:53.093Z,12.17
2018-09-28T21:13:21.926Z,12.15
2018-09-28T21:15:50.600Z,12.07
2018-09-28T21:18:19.727Z,12.02
2018-09-28T21:20:48.534Z,11.98
2018-09-28T21:23:17.272Z,11.96
2018-09-28T21:25:45.976Z,11.93
2018-09-28T21:28:14.678Z,11.91
2018-09-28T21:30:43.368Z,11.90
2018-09-28T21:33:12.052Z,11.87
2018-09-28T21:35:40.764Z,11.88
2018-09-28T21:38:09.465Z,11.86
2018-09-28T21:40:38.112Z,11.86
2018-09-28T21:43:07.868Z,11.84
2018-09-28T21:45:36.541Z,11.84
2018-09-28T21:48:05.268Z,11.81
2018-09-28T21:50:33.949Z,11.80
2018-09-28T21:53:02.665Z,11.77
2018-09-28T21:55:31.335Z,11.71
2018-09-28T21:58:00.008Z,11.69
2018-09-28T22:00:28.789Z,11.67
2018-09-28T22:02:57.711Z,11.67
2018-09-28T22:05:26.376Z,11.67
2018-09-28T22:07:55.060Z,11.65
2018-09-28T22:10:23.755Z,11.62
2018-09-28T22:12:52.440Z,11.58
2018-09-28T22:15:21.127Z,11.56
2018-09-28T22:17:49.867Z,11.51
2018-09-28T22:20:18.620Z,11.48
2018-09-28T22:22:47.351Z,11.44
2018-09-28T22:25:16.079Z,11.41
2018-09-28T22:27:44.767Z,11.39
2018-09-28T22:30:13.427Z,11.36
2018-09-28T22:32:42.073Z,11.34
2018-09-28T22:35:10.775Z,11.34
2018-09-28T22:37:39.467Z,11.30
2018-09-28T22:40:08.115Z,11.24
2018-09-28T22:42:36.823Z,11.20
2018-09-28T22:45:05.483Z,11.17
2018-09-28T22:47:34.155Z,11.16
2018-09-28T22:50:02.809Z,11.13
2018-09-28T22:52:31.480Z,11.07
2018-09-28T22:55:00.198Z,11.05
2018-09-28T22:57:28.896Z,11.03
2018-09-28T22:59:57.651Z,11.00
2018-09-28T23:02:26.328Z,10.99
2018-09-28T23:04:55.036Z,10.98
2018-09-28T23:07:23.738Z,10.96
2018-09-28T23:09:52.428Z,10.96
2018-09-28T23:12:21.151Z,10.92
2018-09-28T23:14:49.880Z,10.92
2018-09-28T23:17:18.612Z,10.90
2018-09-28T23:19:47.573Z,10.87
2018-09-28T23:22:16.400Z,10.84
2018-09-28T23:24:45.076Z,10.80
2018-09-28T23:27:13.835Z,10.78
2018-09-28T23:29:42.624Z,10.73
2018-09-28T23:32:11.276Z,10.71
2018-09-28T23:34:39.988Z,10.67
2018-09-28T23:37:08.713Z,10.64
2018-09-28T23:39:37.473Z,10.61
2018-09-28T23:42:06.220Z,10.59
2018-09-28T23:44:35.009Z,10.56
2018-09-28T23:47:03.706Z,10.54
2018-09-28T23:49:32.411Z,10.53
2018-09-28T23:52:01.076Z,10.52
2018-09-28T23:54:29.720Z,10.51
2018-09-28T23:56:58.402Z,10.50
2018-09-28T23:59:27.089Z,10.50
